CHH3MD ZBAA-CYYZ
Flight info
| Callsign | CHH3MD |
|---|---|
| Flight time | N/A |
| Altitude | 31100 |
| Route | MUGLO2G MUGLO W34 ANRAT A326 DONVO G597 AGAVO/N0488F310 Y644 EGOBA G597 KAE B467 TENAS/N0484F330 L512 GTC Y512 ADNAP OTR7 EMRON DCT 39N153E 39N157E 39N161E 39N165E 39N169E/N0486F350 39N173E 39N177E 41N179W 43N177W 45N173W 47N169W 49N165W 51N157W/N0486F370 53N149W 55N141W 55N135W 55N125W DCT YQU Q862 ELLKS/N0479F390 Q862 YEGGA Q819 TAGOT Q908 KOBID Q831 AGLIN DCT 47N087W DCT SSM DUVOS4 |
| Aircraft | A346/H-SDE2E3FGHIJ3J4J5M1RWXY/LB1D1 |
Departure
| Time | 2026-05-04 17:15 |
|---|---|
| Airport | Beijing Capital International Airport (ZBAA) |
Arrival
| Time | N/A |
|---|---|
| Airport | Toronto Pearson International Airport (CYYZ) |
| Time | Latitude | Longitude | Altitude | Speed | Heading |
|---|---|---|---|---|---|
| 2026-05-04 16:01 | 40.07886 | 116.58997 | 132 ft | 0 kts | 263° |
| 2026-05-04 17:02 | 40.07887 | 116.59013 | 132 ft | 2 kts | 263° |
| 2026-05-04 17:02 | 40.07891 | 116.59047 | 132 ft | 0 kts | 263° |
| 2026-05-04 17:03 | 40.07893 | 116.59065 | 132 ft | 2 kts | 251° |
| 2026-05-04 17:03 | 40.07900 | 116.59084 | 132 ft | 2 kts | 233° |
| 2026-05-04 17:03 | 40.07925 | 116.59110 | 132 ft | 2 kts | 202° |
| 2026-05-04 17:04 | 40.07955 | 116.59116 | 132 ft | 0 kts | 173° |
| 2026-05-04 17:04 | 40.07958 | 116.59116 | 132 ft | 0 kts | 172° |
| 2026-05-04 17:06 | 40.07957 | 116.59116 | 132 ft | 0 kts | 172° |
| 2026-05-04 17:07 | 40.07848 | 116.59134 | 132 ft | 12 kts | 174° |
| 2026-05-04 17:07 | 40.07799 | 116.59141 | 132 ft | 9 kts | 171° |
| 2026-05-04 17:07 | 40.07774 | 116.59210 | 132 ft | 7 kts | 93° |
| 2026-05-04 17:07 | 40.07777 | 116.59289 | 132 ft | 9 kts | 85° |
| 2026-05-04 17:08 | 40.07768 | 116.59351 | 132 ft | 6 kts | 146° |
| 2026-05-04 17:08 | 40.07649 | 116.59390 | 132 ft | 10 kts | 175° |
| 2026-05-04 17:08 | 40.07567 | 116.59402 | 132 ft | 12 kts | 173° |
| 2026-05-04 17:09 | 40.07473 | 116.59416 | 132 ft | 13 kts | 173° |
| 2026-05-04 17:09 | 40.07383 | 116.59463 | 132 ft | 14 kts | 151° |
| 2026-05-04 17:09 | 40.07280 | 116.59505 | 132 ft | 14 kts | 171° |
| 2026-05-04 17:10 | 40.07055 | 116.59540 | 132 ft | 16 kts | 173° |
| 2026-05-04 17:10 | 40.06691 | 116.59598 | 132 ft | 17 kts | 174° |
| 2026-05-04 17:11 | 40.06566 | 116.59617 | 132 ft | 17 kts | 173° |
| 2026-05-04 17:11 | 40.06444 | 116.59636 | 132 ft | 17 kts | 173° |
| 2026-05-04 17:11 | 40.06196 | 116.59675 | 132 ft | 17 kts | 174° |
| 2026-05-04 17:12 | 40.06069 | 116.59693 | 132 ft | 17 kts | 173° |
| 2026-05-04 17:12 | 40.05821 | 116.59733 | 132 ft | 17 kts | 173° |
| 2026-05-04 17:13 | 40.05488 | 116.59810 | 132 ft | 12 kts | 124° |
| 2026-05-04 17:14 | 40.06072 | 116.59930 | 132 ft | 91 kts | 354° |
| 2026-05-04 17:14 | 40.06869 | 116.59806 | 132 ft | 138 kts | 353° |
| 2026-05-04 17:14 | 40.09296 | 116.59413 | 281 ft | 195 kts | 354° |
| 2026-05-04 17:15 | 40.10502 | 116.59222 | 1092 ft | 162 kts | 353° |
| 2026-05-04 17:15 | 40.12845 | 116.58885 | 1533 ft | 179 kts | 351° |
| 2026-05-04 17:16 | 40.15480 | 116.58476 | 2056 ft | 201 kts | 350° |
| 2026-05-04 17:16 | 40.20002 | 116.57725 | 2891 ft | 228 kts | 349° |
| 2026-05-04 17:17 | 40.21590 | 116.57423 | 3156 ft | 237 kts | 350° |
| 2026-05-04 17:17 | 40.26951 | 116.56153 | 3876 ft | 280 kts | 334° |
| 2026-05-04 17:18 | 40.28551 | 116.54699 | 4240 ft | 284 kts | 307° |
| 2026-05-04 17:18 | 40.30915 | 116.50616 | 5637 ft | 279 kts | 305° |
| 2026-05-04 17:19 | 40.31834 | 116.45938 | 6804 ft | 273 kts | 266° |
| 2026-05-04 17:19 | 40.31701 | 116.41075 | 7881 ft | 278 kts | 269° |
| 2026-05-04 17:20 | 40.31665 | 116.35971 | 8982 ft | 282 kts | 270° |
| 2026-05-04 17:20 | 40.31657 | 116.30767 | 10061 ft | 286 kts | 270° |
| 2026-05-04 17:20 | 40.31657 | 116.28095 | 10339 ft | 297 kts | 271° |
| 2026-05-04 17:21 | 40.30466 | 116.22760 | 10756 ft | 328 kts | 233° |
| 2026-05-04 17:21 | 40.26484 | 116.19278 | 11201 ft | 359 kts | 210° |
| 2026-05-04 17:22 | 40.24210 | 116.17750 | 11427 ft | 371 kts | 210° |
| 2026-05-04 17:22 | 40.21879 | 116.16163 | 11717 ft | 381 kts | 210° |
| 2026-05-04 17:23 | 40.14636 | 116.11217 | 13172 ft | 393 kts | 209° |
| 2026-05-04 17:23 | 40.12212 | 116.09565 | 13626 ft | 397 kts | 209° |
| 2026-05-04 17:23 | 40.07204 | 116.06156 | 14614 ft | 403 kts | 209° |
| 2026-05-04 17:24 | 40.04718 | 116.04529 | 15104 ft | 405 kts | 203° |
| 2026-05-04 17:24 | 39.96363 | 116.05595 | 16526 ft | 414 kts | 159° |
| 2026-05-04 17:25 | 39.93662 | 116.06981 | 16966 ft | 417 kts | 159° |
| 2026-05-04 17:25 | 39.88180 | 116.09703 | 17890 ft | 421 kts | 160° |
| 2026-05-04 17:26 | 39.82658 | 116.12526 | 18708 ft | 427 kts | 156° |
| 2026-05-04 17:26 | 39.74746 | 116.18202 | 19822 ft | 437 kts | 149° |
| 2026-05-04 17:27 | 39.69458 | 116.22342 | 20544 ft | 442 kts | 149° |
| 2026-05-04 17:27 | 39.64144 | 116.26484 | 21227 ft | 448 kts | 149° |
| 2026-05-04 17:28 | 39.58703 | 116.30714 | 21921 ft | 454 kts | 149° |
| 2026-05-04 17:29 | 39.50508 | 116.37065 | 22889 ft | 462 kts | 149° |
| 2026-05-04 17:29 | 39.42513 | 116.44486 | 23880 ft | 469 kts | 141° |
| 2026-05-04 17:30 | 39.34758 | 116.52524 | 24807 ft | 475 kts | 141° |
| 2026-05-04 17:31 | 39.29535 | 116.57918 | 25392 ft | 480 kts | 140° |
| 2026-05-04 17:31 | 39.21948 | 116.65730 | 26197 ft | 486 kts | 141° |
| 2026-05-04 17:32 | 39.16680 | 116.71265 | 26729 ft | 489 kts | 134° |
| 2026-05-04 17:33 | 39.13201 | 116.83247 | 27455 ft | 482 kts | 90° |
| 2026-05-04 17:33 | 39.13054 | 116.87618 | 27736 ft | 484 kts | 90° |
| 2026-05-04 17:34 | 39.12511 | 117.00686 | 28618 ft | 486 kts | 91° |
| 2026-05-04 17:34 | 39.12307 | 117.05012 | 29022 ft | 484 kts | 91° |
| 2026-05-04 17:35 | 39.11676 | 117.17960 | 29888 ft | 485 kts | 90° |
| 2026-05-04 17:35 | 39.11243 | 117.26617 | 30346 ft | 486 kts | 90° |
| 2026-05-04 17:35 | 39.11021 | 117.31020 | 30579 ft | 487 kts | 90° |
| 2026-05-04 17:36 | 39.10801 | 117.35342 | 30770 ft | 488 kts | 90° |
| 2026-05-04 17:36 | 39.10349 | 117.44122 | 30850 ft | 490 kts | 90° |
| 2026-05-04 17:37 | 39.09884 | 117.52853 | 30849 ft | 490 kts | 90° |
| 2026-05-04 17:37 | 39.09402 | 117.61647 | 30841 ft | 490 kts | 91° |
| 2026-05-04 17:38 | 39.08918 | 117.70377 | 30844 ft | 490 kts | 91° |
| 2026-05-04 17:38 | 39.08423 | 117.79189 | 30847 ft | 490 kts | 91° |
| 2026-05-04 17:39 | 39.07673 | 117.92362 | 30848 ft | 491 kts | 91° |
| 2026-05-04 17:39 | 39.07122 | 118.01157 | 30854 ft | 492 kts | 94° |
| 2026-05-04 17:40 | 39.06034 | 118.09827 | 30856 ft | 494 kts | 98° |
| 2026-05-04 17:40 | 39.04654 | 118.18510 | 30860 ft | 494 kts | 99° |
| 2026-05-04 17:41 | 39.03267 | 118.27183 | 30864 ft | 494 kts | 99° |
| 2026-05-04 17:41 | 39.01885 | 118.35823 | 30862 ft | 494 kts | 99° |
| 2026-05-04 17:42 | 39.00496 | 118.44486 | 30868 ft | 494 kts | 99° |
| 2026-05-04 17:42 | 38.99092 | 118.53176 | 30869 ft | 494 kts | 99° |
| 2026-05-04 17:43 | 38.97684 | 118.61843 | 30871 ft | 494 kts | 99° |
| 2026-05-04 17:43 | 38.96266 | 118.70553 | 30872 ft | 494 kts | 99° |
| 2026-05-04 17:44 | 38.94849 | 118.79209 | 30871 ft | 493 kts | 100° |
| 2026-05-04 17:44 | 38.93367 | 118.88211 | 30874 ft | 493 kts | 100° |
| 2026-05-04 17:45 | 38.91936 | 118.96858 | 30879 ft | 493 kts | 100° |
| 2026-05-04 17:45 | 38.90494 | 119.05524 | 30874 ft | 494 kts | 100° |
| 2026-05-04 17:46 | 38.89008 | 119.14401 | 30873 ft | 494 kts | 100° |
| 2026-05-04 17:46 | 38.87544 | 119.23105 | 30882 ft | 494 kts | 100° |
| 2026-05-04 17:47 | 38.86089 | 119.31720 | 30885 ft | 494 kts | 100° |
| 2026-05-04 17:47 | 38.84620 | 119.40379 | 30887 ft | 495 kts | 100° |
| 2026-05-04 17:48 | 38.83143 | 119.49045 | 30892 ft | 495 kts | 100° |
| 2026-05-04 17:48 | 38.81647 | 119.57771 | 30894 ft | 495 kts | 100° |
| 2026-05-04 17:49 | 38.80162 | 119.66396 | 30896 ft | 495 kts | 101° |
| 2026-05-04 17:49 | 38.78515 | 119.74986 | 30891 ft | 497 kts | 108° |
| 2026-05-04 17:50 | 38.75500 | 119.83012 | 30895 ft | 499 kts | 122° |
| 2026-05-04 17:50 | 38.71172 | 119.89989 | 30903 ft | 500 kts | 130° |
| 2026-05-04 17:51 | 38.66985 | 119.97076 | 30905 ft | 498 kts | 118° |
| 2026-05-04 17:51 | 38.64308 | 120.05255 | 30909 ft | 496 kts | 103° |
| 2026-05-04 17:52 | 38.62837 | 120.13903 | 30917 ft | 496 kts | 99° |
| 2026-05-04 17:52 | 38.61441 | 120.22582 | 30919 ft | 495 kts | 100° |
| 2026-05-04 17:53 | 38.60031 | 120.31181 | 30918 ft | 495 kts | 100° |
| 2026-05-04 17:53 | 38.58601 | 120.39977 | 30921 ft | 495 kts | 100° |
| 2026-05-04 17:54 | 38.57161 | 120.48786 | 30931 ft | 496 kts | 100° |
| 2026-05-04 17:54 | 38.55713 | 120.57592 | 30928 ft | 496 kts | 100° |
| 2026-05-04 17:55 | 38.54273 | 120.66492 | 30930 ft | 495 kts | 100° |
| 2026-05-04 17:55 | 38.52865 | 120.75169 | 30932 ft | 495 kts | 100° |
| 2026-05-04 17:56 | 38.51456 | 120.83801 | 30910 ft | 495 kts | 100° |
| 2026-05-04 17:56 | 38.50000 | 120.92678 | 30939 ft | 495 kts | 100° |
| 2026-05-04 17:57 | 38.48530 | 121.01590 | 30936 ft | 496 kts | 100° |
| 2026-05-04 17:57 | 38.47033 | 121.10622 | 30945 ft | 495 kts | 101° |
| 2026-05-04 17:58 | 38.45549 | 121.19608 | 30944 ft | 495 kts | 100° |
| 2026-05-04 17:58 | 38.44095 | 121.28598 | 30946 ft | 495 kts | 100° |
| 2026-05-04 17:59 | 38.42680 | 121.37385 | 30949 ft | 494 kts | 100° |
| 2026-05-04 18:00 | 38.40478 | 121.50865 | 30946 ft | 494 kts | 100° |
| 2026-05-04 18:00 | 38.38995 | 121.59750 | 30954 ft | 494 kts | 100° |
| 2026-05-04 18:01 | 38.37526 | 121.68514 | 30948 ft | 495 kts | 101° |
| 2026-05-04 18:01 | 38.36068 | 121.77181 | 30954 ft | 495 kts | 101° |
| 2026-05-04 18:02 | 38.33813 | 121.90506 | 30965 ft | 494 kts | 101° |
| 2026-05-04 18:02 | 38.32242 | 121.99751 | 30971 ft | 495 kts | 101° |
| 2026-05-04 18:03 | 38.30711 | 122.08724 | 30975 ft | 494 kts | 101° |
| 2026-05-04 18:03 | 38.29220 | 122.17408 | 30974 ft | 495 kts | 101° |
| 2026-05-04 18:04 | 38.27726 | 122.26260 | 30975 ft | 495 kts | 99° |
| 2026-05-04 18:05 | 38.25396 | 122.39757 | 30981 ft | 497 kts | 109° |
| 2026-05-04 18:05 | 38.22158 | 122.48009 | 30990 ft | 499 kts | 123° |
| 2026-05-04 18:06 | 38.14982 | 122.58316 | 30999 ft | 499 kts | 134° |
| 2026-05-04 18:06 | 38.09869 | 122.64830 | 31002 ft | 499 kts | 134° |
| 2026-05-04 18:07 | 38.04964 | 122.71177 | 31004 ft | 500 kts | 134° |
| 2026-05-04 18:07 | 38.00057 | 122.77550 | 30997 ft | 499 kts | 134° |
| 2026-05-04 18:08 | 37.95050 | 122.84040 | 30996 ft | 499 kts | 134° |
| 2026-05-04 18:08 | 37.90153 | 122.90375 | 30997 ft | 499 kts | 134° |
| 2026-05-04 18:09 | 37.80325 | 123.03052 | 31003 ft | 501 kts | 134° |
| 2026-05-04 18:10 | 37.75236 | 123.09592 | 31007 ft | 500 kts | 134° |
| 2026-05-04 18:10 | 37.70231 | 123.16013 | 31009 ft | 500 kts | 134° |
| 2026-05-04 18:11 | 37.65246 | 123.22397 | 31017 ft | 499 kts | 134° |
| 2026-05-04 18:11 | 37.60296 | 123.28720 | 31017 ft | 499 kts | 134° |
| 2026-05-04 18:12 | 37.55372 | 123.35569 | 31024 ft | 499 kts | 128° |
| 2026-05-04 18:12 | 37.50984 | 123.42838 | 31025 ft | 499 kts | 126° |
| 2026-05-04 18:13 | 37.46798 | 123.49883 | 31027 ft | 499 kts | 126° |
| 2026-05-04 18:14 | 37.40261 | 123.60830 | 31029 ft | 499 kts | 126° |
| 2026-05-04 18:14 | 37.35884 | 123.68134 | 31039 ft | 499 kts | 127° |
| 2026-05-04 18:15 | 37.27485 | 123.82108 | 31038 ft | 499 kts | 127° |
| 2026-05-04 18:16 | 37.23282 | 123.89080 | 31048 ft | 498 kts | 127° |
| 2026-05-04 18:16 | 37.19499 | 123.96463 | 31046 ft | 498 kts | 114° |
| 2026-05-04 18:17 | 37.17374 | 124.04913 | 31054 ft | 495 kts | 98° |
| 2026-05-04 18:17 | 37.17008 | 124.09538 | 31055 ft | 494 kts | 90° |
| 2026-05-04 18:18 | 37.17511 | 124.23020 | 31058 ft | 493 kts | 85° |
| 2026-05-04 18:18 | 37.17802 | 124.32001 | 31061 ft | 494 kts | 87° |
| 2026-05-04 18:19 | 37.18112 | 124.45564 | 31067 ft | 494 kts | 87° |
| 2026-05-04 18:19 | 37.18317 | 124.54494 | 31069 ft | 494 kts | 87° |
| 2026-05-04 18:20 | 37.18517 | 124.63387 | 31068 ft | 493 kts | 87° |
| 2026-05-04 18:20 | 37.18700 | 124.71819 | 31071 ft | 494 kts | 87° |
| 2026-05-04 18:21 | 37.18881 | 124.80451 | 31072 ft | 494 kts | 87° |
| 2026-05-04 18:21 | 37.19055 | 124.89117 | 31069 ft | 494 kts | 87° |
| 2026-05-04 18:22 | 37.19222 | 124.97806 | 31069 ft | 494 kts | 87° |
| 2026-05-04 18:22 | 37.19385 | 125.06464 | 31083 ft | 494 kts | 88° |
| 2026-05-04 18:23 | 37.19540 | 125.15154 | 31082 ft | 495 kts | 88° |
| 2026-05-04 18:23 | 37.19689 | 125.23827 | 31081 ft | 495 kts | 88° |
| 2026-05-04 18:24 | 37.19833 | 125.32557 | 31084 ft | 495 kts | 88° |
| 2026-05-04 18:24 | 37.19972 | 125.41308 | 31085 ft | 495 kts | 88° |
| 2026-05-04 18:25 | 37.20103 | 125.50041 | 31089 ft | 495 kts | 88° |
| 2026-05-04 18:25 | 37.20226 | 125.58805 | 31091 ft | 495 kts | 88° |
| 2026-05-04 18:26 | 37.20343 | 125.67488 | 31090 ft | 495 kts | 88° |
| 2026-05-04 18:26 | 37.20454 | 125.76211 | 31095 ft | 495 kts | 88° |
| 2026-05-04 18:27 | 37.20558 | 125.84886 | 31093 ft | 495 kts | 88° |
| 2026-05-04 18:27 | 37.20655 | 125.93545 | 31096 ft | 496 kts | 88° |
| 2026-05-04 18:28 | 37.20748 | 126.02235 | 31095 ft | 496 kts | 88° |
| 2026-05-04 18:28 | 37.20834 | 126.10888 | 31096 ft | 496 kts | 88° |
| 2026-05-04 18:29 | 37.20915 | 126.19634 | 31106 ft | 496 kts | 88° |
| 2026-05-04 18:29 | 37.20989 | 126.28313 | 31106 ft | 496 kts | 88° |
| 2026-05-04 18:30 | 37.21079 | 126.39935 | 31110 ft | 496 kts | 88° |
| 2026-05-04 18:31 | 37.21146 | 126.50071 | 31112 ft | 496 kts | 88° |
| 2026-05-04 18:31 | 37.21195 | 126.58738 | 31109 ft | 496 kts | 88° |
| 2026-05-04 18:32 | 37.21238 | 126.67416 | 31113 ft | 496 kts | 89° |
| 2026-05-04 18:32 | 37.21276 | 126.76100 | 31118 ft | 496 kts | 89° |
| 2026-05-04 18:33 | 37.21308 | 126.84808 | 31114 ft | 497 kts | 89° |
| 2026-05-04 18:33 | 37.21770 | 126.93446 | 31116 ft | 496 kts | 77° |
| 2026-05-04 18:34 | 37.23999 | 127.01571 | 31117 ft | 491 kts | 61° |
| 2026-05-04 18:34 | 37.27879 | 127.08647 | 31128 ft | 487 kts | 47° |
| 2026-05-04 18:35 | 37.32400 | 127.14942 | 31122 ft | 486 kts | 45° |
| 2026-05-04 18:35 | 37.36959 | 127.21275 | 31118 ft | 485 kts | 46° |
| 2026-05-04 18:36 | 37.41463 | 127.27622 | 31114 ft | 486 kts | 46° |
| 2026-05-04 18:36 | 37.45690 | 127.34320 | 31110 ft | 490 kts | 55° |
| 2026-05-04 18:37 | 37.48865 | 127.42017 | 31118 ft | 494 kts | 66° |
| 2026-05-04 18:37 | 37.50789 | 127.50337 | 31115 ft | 497 kts | 76° |
| 2026-05-04 18:38 | 37.52122 | 127.58871 | 31111 ft | 497 kts | 77° |
| 2026-05-04 18:38 | 37.53467 | 127.67471 | 31105 ft | 498 kts | 77° |
| 2026-05-04 18:39 | 37.54827 | 127.76045 | 31097 ft | 497 kts | 77° |
| 2026-05-04 18:39 | 37.56034 | 127.83683 | 31111 ft | 498 kts | 77° |
| 2026-05-04 18:40 | 37.57393 | 127.92318 | 31104 ft | 498 kts | 77° |
| 2026-05-04 18:40 | 37.58736 | 128.00911 | 31111 ft | 498 kts | 77° |
| 2026-05-04 18:41 | 37.60066 | 128.09464 | 31102 ft | 498 kts | 77° |
| 2026-05-04 18:41 | 37.61411 | 128.18162 | 31099 ft | 499 kts | 77° |
| 2026-05-04 18:42 | 37.62735 | 128.26758 | 31085 ft | 500 kts | 77° |
| 2026-05-04 18:42 | 37.64065 | 128.35435 | 31085 ft | 499 kts | 77° |
| 2026-05-04 18:43 | 37.65376 | 128.44038 | 31083 ft | 500 kts | 76° |
| 2026-05-04 18:43 | 37.66698 | 128.52754 | 31081 ft | 500 kts | 77° |
| 2026-05-04 18:44 | 37.68005 | 128.61440 | 31078 ft | 500 kts | 76° |
| 2026-05-04 18:44 | 37.69264 | 128.70138 | 31069 ft | 501 kts | 79° |
| 2026-05-04 18:45 | 37.69954 | 128.78969 | 31068 ft | 502 kts | 85° |
| 2026-05-04 18:45 | 37.69966 | 128.87851 | 31057 ft | 504 kts | 89° |
| 2026-05-04 18:46 | 37.69844 | 128.96715 | 31045 ft | 504 kts | 89° |
| 2026-05-04 18:46 | 37.69752 | 129.03564 | 31054 ft | 505 kts | 89° |